Time;durP1;ratioP1;P1;durP2;ratioP2;P2;SDS_P1;SDS_P2;PMS_P1;PMS_P2;Temp;Humidity;BMP_temperature;BMP_pressure;BME280_temperature;BME280_humidity;BME280_pressure;Samples;Min_cycle;Max_cycle;Signal;HPM_P1;HPM_P2
2023/04/03 05:53:23;;;;;;;;;;;19.70;97.90;;;;;;5069219;28;19944;-70
2023/04/03 05:55:50;;;;;;;;;;;19.70;97.30;;;;;;5071136;28;19913;-69
2023/04/03 05:58:16;;;;;;;;;;;19.40;96.50;;;;;;5071586;28;19923;-70
2023/04/03 06:00:43;;;;;;;;;;;19.30;95.70;;;;;;5069482;28;20396;-70
2023/04/03 06:03:10;;;;;;;;;;;19.40;96.40;;;;;;5071879;28;19912;-70
2023/04/03 06:05:37;;;;;;;;;;;19.40;96.20;;;;;;5072746;28;19908;-70
2023/04/03 06:08:04;;;;;;;;;;;19.50;96.90;;;;;;5068678;28;19915;-71
2023/04/03 06:10:30;;;;;;;;;;;19.50;96.10;;;;;;5055930;28;20362;-70
2023/04/03 06:12:57;;;;;;;;;;;19.40;96.20;;;;;;5064937;28;20322;-70
2023/04/03 06:15:24;;;;;;;;;;;19.30;96.00;;;;;;5070401;28;19927;-70
2023/04/03 06:17:51;;;;;;;;;;;19.40;96.90;;;;;;5071922;28;19908;-70
2023/04/03 06:20:18;;;;;;;;;;;19.50;97.10;;;;;;5069386;28;19912;-70
2023/04/03 06:22:44;;;;;;;;;;;19.50;97.10;;;;;;5064896;28;19934;-70
2023/04/03 06:25:12;;;;;;;;;;;19.50;96.90;;;;;;5072744;28;19915;-70
2023/04/03 06:27:38;;;;;;;;;;;19.60;97.10;;;;;;5069129;28;19966;-70
2023/04/03 06:30:06;;;;;;;;;;;19.60;97.30;;;;;;5071846;28;19920;-70
2023/04/03 06:32:33;;;;;;;;;;;19.70;97.20;;;;;;5071519;28;19912;-70
2023/04/03 06:35:00;;;;;;;;;;;19.50;96.00;;;;;;5072620;28;19962;-70
2023/04/03 06:37:28;;;;;;;;;;;19.50;96.50;;;;;;5060926;28;19917;-70
2023/04/03 06:39:55;;;;;;;;;;;19.60;96.80;;;;;;5057592;28;19923;-70
2023/04/03 06:42:22;;;;;;;;;;;19.50;95.90;;;;;;5061780;28;19921;-71
2023/04/03 06:44:49;;;;;;;;;;;19.50;96.00;;;;;;5052549;28;20278;-71
2023/04/03 06:47:16;;;;;;;;;;;19.60;96.60;;;;;;5068297;28;19916;-70
2023/04/03 06:49:42;;;;;;;;;;;19.50;96.40;;;;;;5071643;28;20286;-71
2023/04/03 06:52:09;;;;;;;;;;;19.60;96.80;;;;;;5072951;28;19920;-70
2023/04/03 06:54:36;;;;;;;;;;;19.60;96.90;;;;;;5091453;28;19912;-71
2023/04/03 06:57:03;;;;;;;;;;;19.50;96.50;;;;;;5084230;28;20425;-71
2023/04/03 06:59:29;;;;;;;;;;;19.60;96.60;;;;;;5071315;28;20002;-71
2023/04/03 07:01:58;;;;;;;;;;;19.60;96.50;;;;;;5079537;28;19946;-71
2023/04/03 07:04:25;;;;;;;;;;;19.60;96.60;;;;;;5090789;28;19969;-70
2023/04/03 07:06:52;;;;;;;;;;;19.60;96.60;;;;;;5091671;28;20358;-71
2023/04/03 07:09:18;;;;;;;;;;;19.50;96.30;;;;;;5103896;28;19912;-70
2023/04/03 07:11:45;;;;;;;;;;;19.50;96.50;;;;;;5100229;28;19912;-71
2023/04/03 07:14:12;;;;;;;;;;;19.50;96.00;;;;;;5091086;28;19912;-71
2023/04/03 07:16:39;;;;;;;;;;;19.40;95.40;;;;;;5073411;28;19981;-71
2023/04/03 07:19:08;;;;;;;;;;;19.50;96.20;;;;;;5090675;28;19936;-71
2023/04/03 07:21:35;;;;;;;;;;;19.60;96.50;;;;;;5081858;28;19923;-71
2023/04/03 07:24:02;;;;;;;;;;;19.50;96.20;;;;;;5091864;28;20323;-71
2023/04/03 07:26:28;;;;;;;;;;;19.50;96.50;;;;;;5090649;28;19930;-70
2023/04/03 07:28:55;;;;;;;;;;;19.60;96.50;;;;;;5090747;28;19912;-70
2023/04/03 07:31:22;;;;;;;;;;;19.50;96.50;;;;;;5075238;28;19919;-70
2023/04/03 07:33:49;;;;;;;;;;;19.50;96.50;;;;;;5072174;28;20400;-71
2023/04/03 07:36:17;;;;;;;;;;;19.50;96.40;;;;;;5079549;28;20361;-71
2023/04/03 07:38:44;;;;;;;;;;;19.50;96.30;;;;;;5086151;28;19912;-70
2023/04/03 07:41:18;;;;;;;;;;;19.50;96.20;;;;;;5091247;28;19916;-71
2023/04/03 07:43:45;;;;;;;;;;;19.50;96.10;;;;;;5091925;28;19908;-70
2023/04/03 07:46:12;;;;;;;;;;;19.50;95.50;;;;;;5088428;28;19994;-71
2023/04/03 07:48:38;;;;;;;;;;;19.50;96.00;;;;;;5084697;28;19917;-71
2023/04/03 07:51:05;;;;;;;;;;;19.40;95.20;;;;;;5071520;28;19946;-71
2023/04/03 07:53:32;;;;;;;;;;;19.40;95.50;;;;;;5083171;28;19915;-70
2023/04/03 07:55:59;;;;;;;;;;;19.40;95.40;;;;;;5091690;28;19957;-71
2023/04/03 07:58:25;;;;;;;;;;;19.50;95.80;;;;;;5091222;28;19912;-70
2023/04/03 08:00:52;;;;;;;;;;;19.50;95.90;;;;;;5090132;28;20281;-70
2023/04/03 08:03:19;;;;;;;;;;;19.50;95.70;;;;;;5072593;28;19995;-70
2023/04/03 08:05:46;;;;;;;;;;;19.40;95.90;;;;;;5093509;28;19938;-70
2023/04/03 08:08:14;;;;;;;;;;;19.40;95.70;;;;;;5077693;28;19961;-70
2023/04/03 08:10:41;;;;;;;;;;;19.40;95.90;;;;;;5095804;28;19908;-71
2023/04/03 08:13:07;;;;;;;;;;;19.40;95.70;;;;;;5087104;28;20324;-71
2023/04/03 08:15:34;;;;;;;;;;;19.40;95.50;;;;;;5085493;28;19908;-70
2023/04/03 08:18:01;;;;;;;;;;;19.40;95.70;;;;;;5089011;28;19916;-70
2023/04/03 08:20:28;;;;;;;;;;;19.40;95.50;;;;;;5076246;28;19919;-71
2023/04/03 08:22:55;;;;;;;;;;;19.40;95.20;;;;;;5077620;28;19921;-70
2023/04/03 08:25:21;;;;;;;;;;;19.40;95.10;;;;;;5091842;28;19969;-70
2023/04/03 08:27:48;;;;;;;;;;;19.40;94.80;;;;;;5084164;28;19915;-69
2023/04/03 08:30:15;;;;;;;;;;;19.40;94.30;;;;;;5075105;28;19909;-70
2023/04/03 08:32:42;;;;;;;;;;;19.30;94.50;;;;;;5073306;28;19916;-71
2023/04/03 08:35:09;;;;;;;;;;;19.30;93.70;;;;;;5084073;28;19915;-71
2023/04/03 08:37:36;;;;;;;;;;;19.30;93.00;;;;;;5075109;28;19919;-70
2023/04/03 08:40:03;;;;;;;;;;;19.30;93.20;;;;;;5074968;28;19969;-70
2023/04/03 08:42:49;;;;;;;;;;;19.40;93.00;;;;;;5084518;28;19916;-71
2023/04/03 08:45:15;;;;;;;;;;;19.40;92.90;;;;;;5093893;28;20002;-71
2023/04/03 08:48:00;;;;;;;;;;;19.40;92.60;;;;;;5095809;28;19908;-70
2023/04/03 08:50:31;;;;;;;;;;;19.40;92.40;;;;;;5095011;28;19910;-70
2023/04/03 08:52:58;;;;;;;;;;;19.30;90.90;;;;;;5094803;28;19982;-71
2023/04/03 08:55:25;;;;;;;;;;;19.50;92.20;;;;;;5095006;28;19919;-70
2023/04/03 08:57:55;;;;;;;;;;;19.50;91.10;;;;;;5094537;28;19908;-70
2023/04/03 09:00:23;;;;;;;;;;;19.50;91.30;;;;;;5074377;28;19961;-71
2023/04/03 09:02:50;;;;;;;;;;;19.50;91.50;;;;;;5083870;28;19916;-70
2023/04/03 09:05:39;;;;;;;;;;;19.50;90.60;;;;;;5094537;28;19908;-70
2023/04/03 09:08:23;;;;;;;;;;;19.50;91.00;;;;;;5076901;28;19916;-70
2023/04/03 09:10:50;;;;;;;;;;;19.50;90.70;;;;;;5076060;28;19908;-69
2023/04/03 09:13:17;;;;;;;;;;;19.50;90.20;;;;;;5074827;28;20003;-70
2023/04/03 09:15:44;;;;;;;;;;;19.50;90.30;;;;;;5074070;28;19909;-69
2023/04/03 09:18:17;;;;;;;;;;;19.50;90.80;;;;;;5074692;28;19913;-70
2023/04/03 09:20:50;;;;;;;;;;;19.60;89.90;;;;;;5074106;28;19908;-70
2023/04/03 09:23:30;;;;;;;;;;;19.50;90.00;;;;;;5089503;28;20357;-69
2023/04/03 09:25:58;;;;;;;;;;;19.50;89.90;;;;;;5060154;28;20388;-69
2023/04/03 09:28:25;;;;;;;;;;;19.50;90.00;;;;;;5056188;28;19917;-69
2023/04/03 09:30:52;;;;;;;;;;;19.60;90.40;;;;;;5073872;28;19916;-69
2023/04/03 09:33:20;;;;;;;;;;;19.60;90.20;;;;;;5061273;28;20392;-70
2023/04/03 09:35:46;;;;;;;;;;;19.50;89.70;;;;;;5082813;28;19956;-70
2023/04/03 09:38:13;;;;;;;;;;;19.60;89.80;;;;;;5082450;28;19970;-69
2023/04/03 09:41:03;;;;;;;;;;;19.60;89.90;;;;;;5073320;28;19916;-69
2023/04/03 09:43:31;;;;;;;;;;;19.60;89.80;;;;;;5080992;28;19916;-69
2023/04/03 09:46:16;;;;;;;;;;;19.60;89.50;;;;;;5093641;28;19915;-69
2023/04/03 09:49:00;;;;;;;;;;;19.60;87.20;;;;;;5069934;28;19916;-69
2023/04/03 09:51:29;;;;;;;;;;;19.60;89.30;;;;;;5073448;28;19924;-69
2023/04/03 09:53:56;;;;;;;;;;;19.70;89.50;;;;;;5075098;28;19912;-70
2023/04/03 09:56:25;;;;;;;;;;;19.70;89.50;;;;;;5093559;28;19909;-69
2023/04/03 09:58:52;;;;;;;;;;;19.70;89.30;;;;;;5093659;28;19951;-70
2023/04/03 10:01:28;;;;;;;;;;;19.70;88.70;;;;;;5093527;28;20393;-70
2023/04/03 10:04:08;;;;;;;;;;;19.60;86.50;;;;;;5083674;28;19916;-70
2023/04/03 10:06:35;;;;;;;;;;;19.70;89.20;;;;;;5075441;28;19915;-70
2023/04/03 10:09:07;;;;;;;;;;;19.70;89.20;;;;;;5089141;28;19974;-69
2023/04/03 10:11:34;;;;;;;;;;;19.70;88.80;;;;;;5071965;28;20383;-70
2023/04/03 10:14:02;;;;;;;;;;;19.70;86.50;;;;;;5085381;28;20386;-70
2023/04/03 10:16:33;;;;;;;;;;;19.70;87.70;;;;;;5071076;28;19957;-70
2023/04/03 10:19:18;;;;;;;;;;;19.70;89.00;;;;;;5060130;28;19921;-70
2023/04/03 10:21:55;;;;;;;;;;;19.70;88.30;;;;;;5086405;28;19966;-70
2023/04/03 10:24:24;;;;;;;;;;;19.70;88.00;;;;;;5088503;28;19912;-70
2023/04/03 10:26:54;;;;;;;;;;;19.70;87.30;;;;;;5089163;28;19919;-70
2023/04/03 10:29:39;;;;;;;;;;;19.60;87.70;;;;;;5092339;28;19977;-70
2023/04/03 10:32:12;;;;;;;;;;;19.70;88.60;;;;;;5058011;28;20335;-70
2023/04/03 10:34:40;;;;;;;;;;;19.70;88.00;;;;;;5091083;28;20370;-70
2023/04/03 10:37:10;;;;;;;;;;;19.70;87.30;;;;;;5072793;28;20336;-70
2023/04/03 10:39:57;;;;;;;;;;;19.70;87.80;;;;;;5082272;28;20193;-70
2023/04/03 10:42:52;;;;;;;;;;;19.70;88.30;;;;;;5082931;28;19927;-70
2023/04/03 10:45:19;;;;;;;;;;;19.70;87.70;;;;;;5071486;28;19919;-71
2023/04/03 10:47:54;;;;;;;;;;;19.70;87.20;;;;;;5091545;28;20366;-70
2023/04/03 10:50:30;;;;;;;;;;;19.70;87.80;;;;;;5073856;28;19916;-69
2023/04/03 10:53:09;;;;;;;;;;;19.60;87.30;;;;;;5092450;28;20382;-69
2023/04/03 10:55:56;;;;;;;;;;;19.60;87.40;;;;;;5092393;28;19948;-70
2023/04/03 10:58:28;;;;;;;;;;;19.60;87.80;;;;;;5073549;28;19919;-70
2023/04/03 11:00:55;;;;;;;;;;;19.70;87.70;;;;;;5082017;28;19916;-70
2023/04/03 11:03:25;;;;;;;;;;;19.60;87.30;;;;;;5064628;28;19912;-70
2023/04/03 11:05:53;;;;;;;;;;;19.50;87.00;;;;;;5059359;28;19912;-71
2023/04/03 11:08:30;;;;;;;;;;;19.50;87.60;;;;;;5079964;28;19916;-70
2023/04/03 11:11:01;;;;;;;;;;;19.60;86.80;;;;;;5073539;28;19908;-70
2023/04/03 11:13:27;;;;;;;;;;;19.60;87.00;;;;;;5074731;28;19912;-71
2023/04/03 11:15:55;;;;;;;;;;;19.50;86.70;;;;;;5087138;28;19916;-71
2023/04/03 11:18:41;;;;;;;;;;;19.50;86.80;;;;;;5072481;28;19916;-69
2023/04/03 11:21:17;;;;;;;;;;;19.50;86.00;;;;;;5092013;28;19947;-69
2023/04/03 11:23:45;;;;;;;;;;;19.50;86.60;;;;;;5074346;28;19908;-69
2023/04/03 11:26:12;;;;;;;;;;;19.50;87.60;;;;;;5081469;28;20362;-69
2023/04/03 11:28:39;;;;;;;;;;;19.50;87.20;;;;;;5072079;28;19947;-69
2023/04/03 11:31:25;;;;;;;;;;;19.50;87.20;;;;;;5090546;28;19912;-69
2023/04/03 11:34:06;;;;;;;;;;;19.50;87.60;;;;;;5091980;28;19977;-70
2023/04/03 11:36:34;;;;;;;;;;;19.40;86.60;;;;;;5089868;28;19954;-70
2023/04/03 11:39:02;;;;;;;;;;;19.40;86.80;;;;;;5083913;28;19912;-70
2023/04/03 11:41:29;;;;;;;;;;;19.40;86.30;;;;;;5058272;28;20384;-70
2023/04/03 11:43:59;;;;;;;;;;;19.40;87.30;;;;;;5078017;28;19966;-71
2023/04/03 11:46:44;;;;;;;;;;;19.40;87.30;;;;;;5076605;28;19912;-70
2023/04/03 11:49:28;;;;;;;;;;;19.40;87.20;;;;;;5091677;28;19965;-70
2023/04/03 11:51:56;;;;;;;;;;;19.40;87.30;;;;;;5092245;28;19920;-70
2023/04/03 11:54:36;;;;;;;;;;;19.30;86.50;;;;;;5075673;28;19947;-70
2023/04/03 11:57:21;;;;;;;;;;;19.40;87.30;;;;;;5094260;28;19944;-70
2023/04/03 11:59:48;;;;;;;;;;;19.30;86.70;;;;;;5094119;28;19912;-71
2023/04/03 12:02:38;;;;;;;;;;;19.30;86.60;;;;;;5074797;28;20020;-70
2023/04/03 12:05:23;;;;;;;;;;;19.30;85.90;;;;;;5074294;28;20282;-71
2023/04/03 12:08:13;;;;;;;;;;;19.40;86.90;;;;;;5073229;28;19919;-71
2023/04/03 12:10:40;;;;;;;;;;;19.40;86.30;;;;;;5056952;28;19916;-69
2023/04/03 12:13:15;;;;;;;;;;;19.30;86.60;;;;;;5050787;28;20011;-70
2023/04/03 12:15:42;;;;;;;;;;;19.30;86.80;;;;;;5070889;28;20038;-70
2023/04/03 12:18:27;;;;;;;;;;;19.30;87.30;;;;;;5075140;28;19908;-70
2023/04/03 12:20:57;;;;;;;;;;;19.30;87.40;;;;;;5075171;28;19913;-70
2023/04/03 12:23:28;;;;;;;;;;;19.30;87.40;;;;;;5082953;28;19908;-69
2023/04/03 12:26:05;;;;;;;;;;;19.30;87.30;;;;;;5077542;28;19920;-70
2023/04/03 12:28:36;;;;;;;;;;;19.30;86.70;;;;;;5093139;28;19995;-70
2023/04/03 12:31:06;;;;;;;;;;;19.20;86.80;;;;;;5057114;28;19912;-70
2023/04/03 12:33:56;;;;;;;;;;;19.10;86.60;;;;;;5076620;28;19959;-71
2023/04/03 12:36:38;;;;;;;;;;;19.10;86.60;;;;;;5092630;28;19917;-70
2023/04/03 12:39:17;;;;;;;;;;;19.10;87.50;;;;;;5082599;28;19912;-71
2023/04/03 12:41:44;;;;;;;;;;;19.00;87.10;;;;;;5064330;28;19916;-71
2023/04/03 12:44:15;;;;;;;;;;;19.00;87.40;;;;;;5083444;28;19912;-71
2023/04/03 12:46:48;;;;;;;;;;;19.00;87.50;;;;;;5087067;28;19918;-71
2023/04/03 12:49:23;;;;;;;;;;;19.00;87.90;;;;;;5091786;28;19985;-71
2023/04/03 12:51:49;;;;;;;;;;;18.90;88.00;;;;;;5074823;28;20337;-71
2023/04/03 12:54:34;;;;;;;;;;;18.90;88.40;;;;;;5067405;28;19922;-78
2023/04/03 12:57:18;;;;;;;;;;;18.90;88.60;;;;;;5085912;28;19954;-78
2023/04/03 12:59:47;;;;;;;;;;;18.80;88.80;;;;;;5072224;28;19942;-77
2023/04/03 13:02:33;;;;;;;;;;;18.80;88.90;;;;;;5083026;28;19920;-79
2023/04/03 13:05:04;;;;;;;;;;;18.80;88.80;;;;;;5080171;28;19912;-78
2023/04/03 13:07:37;;;;;;;;;;;18.80;88.90;;;;;;5090327;28;19920;-76
2023/04/03 13:10:07;;;;;;;;;;;18.80;88.90;;;;;;5073197;28;20426;-78
2023/04/03 13:12:34;;;;;;;;;;;18.80;89.20;;;;;;5075518;28;19909;-77
2023/04/03 13:15:04;;;;;;;;;;;18.80;89.50;;;;;;5061198;28;19912;-78
2023/04/03 13:17:31;;;;;;;;;;;18.80;89.20;;;;;;5093835;28;19916;-80
2023/04/03 13:20:09;;;;;;;;;;;18.80;89.90;;;;;;5088786;28;20003;-79
2023/04/03 13:22:43;;;;;;;;;;;18.80;89.60;;;;;;5088876;28;19920;-78
2023/04/03 13:25:10;;;;;;;;;;;18.80;89.60;;;;;;5084959;28;19978;-80
2023/04/03 13:27:37;;;;;;;;;;;18.80;89.60;;;;;;5071140;28;20011;-79
2023/04/03 13:30:04;;;;;;;;;;;18.80;89.50;;;;;;5057303;28;19916;-79
2023/04/03 13:32:31;;;;;;;;;;;18.80;90.00;;;;;;5092339;28;19912;-79
2023/04/03 14:06:16;;;;;;;;;;;18.30;90.80;;;;;;5068503;28;19946;-79
2023/04/03 14:08:43;;;;;;;;;;;18.20;91.10;;;;;;5082339;28;19919;-79
2023/04/03 14:11:20;;;;;;;;;;;18.20;91.10;;;;;;5073370;28;19912;-80
2023/04/03 14:13:47;;;;;;;;;;;18.20;91.50;;;;;;5080391;28;20362;-79
2023/04/03 14:16:16;;;;;;;;;;;18.20;91.60;;;;;;5081494;28;19916;-81
2023/04/03 14:18:44;;;;;;;;;;;18.20;91.70;;;;;;5086068;28;19908;-80
2023/04/03 14:21:14;;;;;;;;;;;18.10;91.90;;;;;;5088181;28;20262;-81
2023/04/03 14:23:41;;;;;;;;;;;18.10;92.00;;;;;;5087827;28;19915;-81
2023/04/03 14:26:16;;;;;;;;;;;18.00;92.00;;;;;;5088681;28;20439;-81
2023/04/03 14:28:43;;;;;;;;;;;18.00;92.00;;;;;;5089358;28;20301;-81
2023/04/03 14:31:10;;;;;;;;;;;18.00;92.20;;;;;;5091280;28;19908;-81
2023/04/03 14:33:37;;;;;;;;;;;18.00;92.30;;;;;;5089415;28;19915;-81
2023/04/03 14:36:14;;;;;;;;;;;18.00;92.60;;;;;;5091374;28;19999;-81
2023/04/03 14:38:40;;;;;;;;;;;18.00;92.70;;;;;;5064170;28;20256;-81
2023/04/03 14:41:07;;;;;;;;;;;18.00;92.80;;;;;;5073141;28;19955;-82
2023/04/03 14:43:34;;;;;;;;;;;18.00;92.90;;;;;;5067413;28;20290;-81
2023/04/03 14:46:01;;;;;;;;;;;18.00;92.90;;;;;;5078684;28;20425;-81
2023/04/03 14:48:28;;;;;;;;;;;18.00;92.80;;;;;;5082277;28;19969;-81
2023/04/03 14:50:54;;;;;;;;;;;18.00;92.80;;;;;;5089599;28;19947;-81
2023/04/03 14:53:25;;;;;;;;;;;18.00;92.90;;;;;;5077767;28;19912;-81
2023/04/03 14:55:52;;;;;;;;;;;18.00;93.00;;;;;;5089468;28;19923;-81
2023/04/03 14:58:20;;;;;;;;;;;18.00;92.90;;;;;;5082906;28;19912;-81
2023/04/03 15:00:46;;;;;;;;;;;17.90;93.10;;;;;;5086005;28;19922;-81
2023/04/03 15:03:14;;;;;;;;;;;17.90;93.00;;;;;;5086693;28;19932;-81
2023/04/03 15:05:42;;;;;;;;;;;17.80;92.90;;;;;;5084603;28;19926;-82
2023/04/03 15:08:13;;;;;;;;;;;17.80;93.10;;;;;;5092893;28;19908;-81
2023/04/03 15:10:40;;;;;;;;;;;17.80;93.10;;;;;;5055032;28;19916;-81
2023/04/03 15:13:07;;;;;;;;;;;17.80;93.20;;;;;;5072508;28;19917;-81
2023/04/03 15:15:33;;;;;;;;;;;17.80;93.20;;;;;;5081280;28;19908;-81
2023/04/03 15:18:00;;;;;;;;;;;17.70;93.30;;;;;;5092707;28;20292;-81
2023/04/03 15:20:27;;;;;;;;;;;17.70;93.30;;;;;;5093158;28;19909;-81
2023/04/03 15:22:55;;;;;;;;;;;17.70;93.30;;;;;;5054511;28;19970;-81
2023/04/03 15:25:22;;;;;;;;;;;17.70;93.10;;;;;;5071993;28;19962;-81
2023/04/03 15:27:49;;;;;;;;;;;17.80;93.30;;;;;;5072031;28;19962;-81
2023/04/03 15:30:17;;;;;;;;;;;17.70;93.20;;;;;;5065700;28;20328;-81
2023/04/03 15:32:43;;;;;;;;;;;17.70;93.00;;;;;;5068302;28;19916;-81
2023/04/03 15:35:10;;;;;;;;;;;17.70;93.10;;;;;;5092074;28;20002;-81
2023/04/03 15:37:37;;;;;;;;;;;17.70;93.10;;;;;;5088312;28;19920;-81
2023/04/03 15:40:04;;;;;;;;;;;17.70;93.00;;;;;;5087295;28;19916;-81
2023/04/03 15:42:31;;;;;;;;;;;17.60;93.10;;;;;;5087656;28;20370;-81
2023/04/03 15:44:58;;;;;;;;;;;17.70;93.00;;;;;;5087882;28;19912;-81
2023/04/03 15:47:25;;;;;;;;;;;17.60;93.20;;;;;;5071947;28;19989;-81
2023/04/03 15:49:52;;;;;;;;;;;17.60;93.20;;;;;;5067932;28;19916;-81
2023/04/03 15:52:18;;;;;;;;;;;17.50;93.40;;;;;;5082668;28;19912;-81
2023/04/03 15:54:45;;;;;;;;;;;17.50;93.40;;;;;;5086906;28;20317;-81
2023/04/03 15:57:12;;;;;;;;;;;17.50;93.40;;;;;;5057795;28;19913;-81
2023/04/03 15:59:38;;;;;;;;;;;17.50;93.40;;;;;;5087604;28;19912;-81
2023/04/03 16:02:05;;;;;;;;;;;17.50;93.50;;;;;;5088906;28;19926;-81
2023/04/03 16:04:32;;;;;;;;;;;17.50;93.50;;;;;;5073446;28;20366;-81
2023/04/03 16:07:01;;;;;;;;;;;17.50;93.40;;;;;;5090083;28;19927;-81
2023/04/03 16:09:28;;;;;;;;;;;17.50;93.20;;;;;;5077039;28;20401;-81
2023/04/03 16:11:56;;;;;;;;;;;17.50;93.40;;;;;;5074148;28;19962;-81
2023/04/03 16:14:22;;;;;;;;;;;17.50;93.20;;;;;;5072643;28;19908;-81
2023/04/03 16:16:49;;;;;;;;;;;17.50;93.30;;;;;;5072129;28;19916;-81
2023/04/03 16:19:16;;;;;;;;;;;17.40;93.30;;;;;;5072415;28;19912;-81
2023/04/03 16:21:43;;;;;;;;;;;17.40;93.20;;;;;;5072097;28;19960;-81
2023/04/03 16:24:09;;;;;;;;;;;17.40;93.20;;;;;;5083000;28;20334;-81
2023/04/03 16:26:36;;;;;;;;;;;17.30;93.40;;;;;;5074812;28;19912;-81
2023/04/03 16:29:03;;;;;;;;;;;17.30;93.50;;;;;;5075401;28;19928;-81
2023/04/03 16:31:29;;;;;;;;;;;17.30;93.50;;;;;;5075472;28;19954;-81
2023/04/03 16:33:56;;;;;;;;;;;17.30;93.60;;;;;;5074204;28;19912;-81
2023/04/03 16:36:24;;;;;;;;;;;17.30;93.60;;;;;;5073837;28;20263;-81
2023/04/03 16:38:50;;;;;;;;;;;17.20;93.70;;;;;;5061297;28;19916;-81
2023/04/03 16:41:17;;;;;;;;;;;17.20;93.70;;;;;;5093441;28;19912;-81
2023/04/03 16:43:44;;;;;;;;;;;17.20;93.90;;;;;;5095529;28;19915;-81
2023/04/03 16:46:10;;;;;;;;;;;17.20;93.90;;;;;;5094228;28;19961;-81
2023/04/03 16:48:37;;;;;;;;;;;17.20;93.80;;;;;;5088625;28;20280;-81
2023/04/03 16:51:04;;;;;;;;;;;17.20;93.90;;;;;;5094527;28;20002;-81
2023/04/03 16:53:31;;;;;;;;;;;17.10;94.00;;;;;;5085801;28;19913;-81
2023/04/03 16:55:58;;;;;;;;;;;17.20;94.10;;;;;;5079717;28;20328;-81
2023/04/03 16:58:25;;;;;;;;;;;17.20;94.10;;;;;;5094249;28;19919;-81
2023/04/03 17:00:53;;;;;;;;;;;17.20;94.30;;;;;;5087878;28;19967;-81
2023/04/03 17:03:20;;;;;;;;;;;17.20;94.20;;;;;;5085031;28;20011;-81
2023/04/03 17:05:49;;;;;;;;;;;17.10;94.20;;;;;;5079726;28;20020;-81
2023/04/03 17:08:16;;;;;;;;;;;17.10;94.20;;;;;;5092343;28;19916;-81
2023/04/03 17:10:43;;;;;;;;;;;17.10;94.20;;;;;;5085372;28;19908;-81
2023/04/03 17:13:10;;;;;;;;;;;17.10;94.20;;;;;;5095151;28;19954;-81
2023/04/03 17:15:37;;;;;;;;;;;17.10;94.20;;;;;;5094043;28;19998;-81
2023/04/03 17:18:03;;;;;;;;;;;17.10;94.30;;;;;;5077023;28;19965;-81
2023/04/03 17:20:32;;;;;;;;;;;17.10;94.00;;;;;;5095034;28;19995;-81
2023/04/03 17:22:59;;;;;;;;;;;17.10;94.00;;;;;;5076698;28;19954;-81
2023/04/03 17:25:25;;;;;;;;;;;17.10;93.90;;;;;;5083482;28;19912;-81
2023/04/03 17:27:52;;;;;;;;;;;17.10;93.80;;;;;;5092645;28;19951;-81
2023/04/03 17:30:19;;;;;;;;;;;17.10;93.90;;;;;;5094794;28;19915;-81
2023/04/03 17:32:46;;;;;;;;;;;17.00;93.80;;;;;;5075294;28;19913;-81
2023/04/03 17:35:13;;;;;;;;;;;17.00;93.80;;;;;;5074173;28;20602;-81
2023/04/03 17:37:39;;;;;;;;;;;17.00;93.80;;;;;;5093333;28;19912;-81
2023/04/03 17:40:06;;;;;;;;;;;17.00;93.80;;;;;;5074998;28;19921;-81
2023/04/03 17:42:33;;;;;;;;;;;17.00;93.90;;;;;;5086331;28;20282;-81
2023/04/03 17:45:00;;;;;;;;;;;17.00;93.80;;;;;;5090914;28;19965;-81
2023/04/03 17:47:27;;;;;;;;;;;17.00;93.90;;;;;;5089871;28;20006;-81
2023/04/03 17:49:53;;;;;;;;;;;17.00;93.80;;;;;;5074589;28;20272;-81
2023/04/03 17:52:24;;;;;;;;;;;17.00;93.90;;;;;;5075573;28;19917;-81
2023/04/03 17:54:50;;;;;;;;;;;17.00;93.90;;;;;;5093050;28;19908;-81
2023/04/03 17:57:17;;;;;;;;;;;17.00;93.90;;;;;;5080940;28;20259;-81
2023/04/03 17:59:52;;;;;;;;;;;17.00;93.90;;;;;;5073475;28;19916;-81
2023/04/03 18:02:19;;;;;;;;;;;16.90;93.90;;;;;;5083147;28;19946;-81
2023/04/03 18:04:46;;;;;;;;;;;16.90;93.90;;;;;;5087655;28;20339;-81
2023/04/03 18:07:13;;;;;;;;;;;16.90;94.10;;;;;;5091048;28;19920;-81
2023/04/03 18:09:40;;;;;;;;;;;16.90;94.10;;;;;;5071483;28;19919;-81
2023/04/03 18:12:07;;;;;;;;;;;16.90;94.20;;;;;;5088542;28;19918;-81
2023/04/03 18:14:34;;;;;;;;;;;16.90;94.20;;;;;;5084444;28;19913;-81
2023/04/03 18:17:01;;;;;;;;;;;16.90;94.30;;;;;;5058761;28;20389;-81
2023/04/03 18:19:28;;;;;;;;;;;17.00;94.40;;;;;;5057403;28;20207;-81
2023/04/03 18:21:55;;;;;;;;;;;16.90;94.20;;;;;;5057927;28;20298;-81
2023/04/03 18:24:22;;;;;;;;;;;16.90;94.30;;;;;;5055137;28;19948;-81
2023/04/03 18:26:50;;;;;;;;;;;16.90;94.20;;;;;;5090369;28;19924;-81
2023/04/03 18:29:16;;;;;;;;;;;16.90;94.30;;;;;;5065376;28;19912;-81
2023/04/03 18:31:44;;;;;;;;;;;16.90;94.20;;;;;;5069703;28;19915;-81
2023/04/03 18:34:11;;;;;;;;;;;16.90;94.10;;;;;;5074311;28;19914;-81
2023/04/03 18:36:38;;;;;;;;;;;16.90;94.20;;;;;;5076443;28;20437;-81
2023/04/03 18:39:05;;;;;;;;;;;16.80;94.10;;;;;;5088366;28;19991;-81
2023/04/03 18:41:32;;;;;;;;;;;16.80;94.10;;;;;;5073139;28;19916;-81
2023/04/03 18:43:59;;;;;;;;;;;16.80;94.20;;;;;;5073104;28;19908;-81
2023/04/03 18:46:25;;;;;;;;;;;16.70;94.20;;;;;;5074585;28;20444;-81
2023/04/03 18:48:52;;;;;;;;;;;16.70;94.20;;;;;;5074852;28;19908;-81
2023/04/03 18:51:19;;;;;;;;;;;16.70;94.40;;;;;;5092998;28;20263;-81
2023/04/03 18:53:46;;;;;;;;;;;16.70;94.40;;;;;;5093129;28;19957;-81
2023/04/03 18:56:13;;;;;;;;;;;16.70;94.50;;;;;;5065058;28;19985;-81
2023/04/03 18:58:40;;;;;;;;;;;16.70;94.50;;;;;;5085266;28;20378;-81
2023/04/03 19:01:07;;;;;;;;;;;16.70;94.60;;;;;;5076214;28;19919;-81
2023/04/03 19:03:34;;;;;;;;;;;16.70;94.60;;;;;;5083265;28;19921;-81
2023/04/03 19:06:01;;;;;;;;;;;16.70;94.70;;;;;;5058464;28;20028;-81
2023/04/03 19:08:28;;;;;;;;;;;16.70;94.60;;;;;;5091003;28;20482;-81
2023/04/03 19:10:55;;;;;;;;;;;16.70;94.70;;;;;;5091195;28;19904;-81
2023/04/03 19:13:21;;;;;;;;;;;16.70;94.60;;;;;;5075696;28;19928;-81
2023/04/03 19:15:50;;;;;;;;;;;16.70;94.60;;;;;;5072514;28;19913;-81
2023/04/03 19:18:17;;;;;;;;;;;16.70;94.50;;;;;;5073022;28;19912;-81
2023/04/03 19:20:44;;;;;;;;;;;16.70;94.40;;;;;;5079666;28;19991;-81
2023/04/03 19:23:12;;;;;;;;;;;16.70;94.40;;;;;;5092718;28;19924;-80
2023/04/03 19:25:40;;;;;;;;;;;16.60;94.40;;;;;;5078812;28;19919;-81
2023/04/03 19:28:06;;;;;;;;;;;16.70;94.50;;;;;;5090633;28;19920;-81
2023/04/03 19:30:33;;;;;;;;;;;16.70;94.50;;;;;;5077998;28;19913;-80
2023/04/03 19:33:00;;;;;;;;;;;16.60;94.50;;;;;;5075093;28;19912;-81
2023/04/03 19:35:27;;;;;;;;;;;16.60;94.40;;;;;;5090126;28;19912;-80
2023/04/03 19:37:53;;;;;;;;;;;16.60;94.40;;;;;;5083743;28;19912;-81
2023/04/03 19:40:20;;;;;;;;;;;16.50;94.40;;;;;;5070242;28;20378;-81
2023/04/03 19:42:47;;;;;;;;;;;16.50;94.40;;;;;;5085766;28;19920;-81
2023/04/03 19:45:16;;;;;;;;;;;16.50;94.40;;;;;;5078971;28;20427;-81
2023/04/03 19:47:43;;;;;;;;;;;16.40;94.30;;;;;;5070018;28;20414;-81
2023/04/03 19:50:10;;;;;;;;;;;16.40;94.30;;;;;;5075048;28;19977;-81
2023/04/03 19:52:37;;;;;;;;;;;16.40;94.40;;;;;;5081483;28;19908;-81
2023/04/03 19:55:04;;;;;;;;;;;16.40;94.40;;;;;;5091359;28;20285;-81
2023/04/03 19:57:30;;;;;;;;;;;16.40;94.50;;;;;;5088584;28;19920;-81
2023/04/03 19:59:57;;;;;;;;;;;16.40;94.70;;;;;;5091700;28;19912;-81
2023/04/03 20:02:24;;;;;;;;;;;16.40;94.60;;;;;;5093519;28;19952;-81
2023/04/03 20:04:51;;;;;;;;;;;16.50;94.60;;;;;;5081738;28;19912;-80
2023/04/03 20:07:17;;;;;;;;;;;16.40;94.50;;;;;;5086877;28;19925;-81
2023/04/03 20:09:44;;;;;;;;;;;16.50;94.50;;;;;;5086450;28;19919;-81
2023/04/03 20:12:11;;;;;;;;;;;16.40;94.50;;;;;;5089590;28;19912;-80
2023/04/03 20:14:39;;;;;;;;;;;16.50;94.50;;;;;;5093305;28;19919;-81
2023/04/03 20:17:07;;;;;;;;;;;16.50;94.60;;;;;;5093603;28;19916;-81
2023/04/03 20:19:34;;;;;;;;;;;16.50;94.60;;;;;;5091291;28;19930;-81
2023/04/03 20:22:00;;;;;;;;;;;16.40;94.50;;;;;;5092233;28;19989;-81
2023/04/03 20:24:27;;;;;;;;;;;16.40;94.50;;;;;;5093840;28;19965;-81
2023/04/03 20:26:56;;;;;;;;;;;16.40;94.50;;;;;;5093331;28;20004;-81
2023/04/03 20:29:23;;;;;;;;;;;16.40;94.50;;;;;;5091681;28;19912;-81
2023/04/03 20:31:52;;;;;;;;;;;16.50;94.50;;;;;;5074382;28;19909;-81
2023/04/03 20:34:20;;;;;;;;;;;16.50;94.60;;;;;;5081852;28;20294;-81
2023/04/03 20:36:47;;;;;;;;;;;16.50;94.50;;;;;;5088424;28;19978;-81
2023/04/03 20:39:14;;;;;;;;;;;16.50;94.60;;;;;;5088298;28;19908;-81
2023/04/03 20:41:40;;;;;;;;;;;16.50;94.70;;;;;;5094341;28;19999;-81
2023/04/03 20:44:07;;;;;;;;;;;16.50;94.70;;;;;;5093936;28;19923;-81
2023/04/03 20:46:34;;;;;;;;;;;16.50;94.70;;;;;;5085373;28;20370;-81
2023/04/03 20:49:00;;;;;;;;;;;16.50;94.70;;;;;;5073673;28;19909;-80
2023/04/03 20:51:28;;;;;;;;;;;16.50;94.70;;;;;;5073906;28;19909;-81